Time;durP1;ratioP1;P1;durP2;ratioP2;P2;SDS_P1;SDS_P2;PMS_P1;PMS_P2;Temp;Humidity;BMP_temperature;BMP_pressure;BME280_temperature;BME280_humidity;BME280_pressure;Samples;Min_cycle;Max_cycle;Signal;HPM_P1;HPM_P2
2023/09/26 00:00:29;;;;;;;9.60;1.65;;;27.20;69.10;;;;;;5052765;28;20051;-67
2023/09/26 00:02:56;;;;;;;8.50;2.03;;;26.60;70.20;;;;;;5054812;28;20548;-67
2023/09/26 00:05:24;;;;;;;6.70;2.22;;;26.10;71.80;;;;;;5053324;28;20025;-68
2023/09/26 00:07:52;;;;;;;9.98;1.90;;;25.90;73.10;;;;;;5053246;28;20543;-67
2023/09/26 00:10:19;;;;;;;10.20;2.20;;;26.00;74.00;;;;;;5050981;28;20454;-68
2023/09/26 00:12:47;;;;;;;11.07;2.63;;;26.60;74.10;;;;;;5056868;28;20032;-68
2023/09/26 00:15:15;;;;;;;11.98;1.95;;;26.90;72.20;;;;;;5052825;28;21824;-68
2023/09/26 00:17:42;;;;;;;14.70;2.60;;;27.00;71.40;;;;;;5063869;28;20017;-68
2023/09/26 00:20:11;;;;;;;12.50;2.72;;;26.90;72.00;;;;;;5061297;28;20032;-67
2023/09/26 00:22:38;;;;;;;14.82;2.85;;;26.90;72.90;;;;;;5054055;28;20032;-68
2023/09/26 00:25:06;;;;;;;11.35;2.83;;;27.00;73.00;;;;;;5057853;28;20075;-67
2023/09/26 00:27:33;;;;;;;15.35;2.53;;;27.00;73.50;;;;;;5054869;28;20033;-68
2023/09/26 00:30:00;;;;;;;21.83;3.13;;;27.30;74.30;;;;;;5057008;28;20025;-67
2023/09/26 00:32:30;;;;;;;15.80;3.20;;;28.00;72.60;;;;;;5056822;28;20056;-68
2023/09/26 00:34:57;;;;;;;15.43;2.97;;;28.00;72.00;;;;;;5058420;28;20032;-68
2023/09/26 00:37:24;;;;;;;18.10;3.50;;;27.70;73.00;;;;;;5060867;28;20033;-68
2023/09/26 00:39:53;;;;;;;13.75;2.85;;;27.00;73.90;;;;;;5059176;28;21434;-68
2023/09/26 00:42:20;;;;;;;16.70;3.30;;;26.20;74.70;;;;;;5060071;28;20025;-67
2023/09/26 00:44:47;;;;;;;22.92;3.72;;;25.90;76.10;;;;;;5056929;28;20112;-67
2023/09/26 00:47:16;;;;;;;16.77;3.08;;;26.10;77.00;;;;;;5060296;28;20885;-67
2023/09/26 00:49:43;;;;;;;18.20;3.35;;;26.70;76.00;;;;;;5057492;28;20115;-68
2023/09/26 00:52:11;;;;;;;18.10;3.60;;;27.30;75.80;;;;;;5057001;28;20135;-68
2023/09/26 00:54:39;;;;;;;23.75;3.10;;;27.80;72.80;;;;;;5057337;28;20052;-66
2023/09/26 00:57:06;;;;;;;15.77;3.60;;;28.10;71.20;;;;;;5059262;28;20040;-66
2023/09/26 00:59:34;;;;;;;21.92;3.50;;;27.90;70.20;;;;;;5054253;28;20367;-67
2023/09/26 01:02:01;;;;;;;20.65;3.10;;;27.80;69.70;;;;;;5054590;28;20035;-67
2023/09/26 01:04:29;;;;;;;13.13;2.72;;;27.70;70.40;;;;;;5056541;28;20018;-66
2023/09/26 01:06:56;;;;;;;16.08;3.38;;;27.40;71.30;;;;;;5053538;28;20112;-67
2023/09/26 01:09:23;;;;;;;14.23;3.13;;;27.70;72.80;;;;;;5053937;28;20037;-67
2023/09/26 01:11:51;;;;;;;13.48;2.95;;;27.70;71.20;;;;;;5060126;28;20359;-67
2023/09/26 01:14:18;;;;;;;15.40;2.58;;;27.30;70.30;;;;;;5055597;28;20021;-67
2023/09/26 01:16:46;;;;;;;15.00;2.60;;;26.90;72.00;;;;;;5058717;28;20025;-67
2023/09/26 01:19:13;;;;;;;14.82;2.90;;;26.70;72.50;;;;;;5064859;28;20055;-67
2023/09/26 01:21:40;;;;;;;18.38;3.95;;;26.60;72.10;;;;;;5064846;28;20066;-67
2023/09/26 01:24:08;;;;;;;18.65;3.78;;;26.30;73.30;;;;;;5070760;28;20075;-68
2023/09/26 01:26:38;;;;;;;19.65;3.67;;;26.30;72.40;;;;;;5071560;28;20028;-67
2023/09/26 01:29:07;;;;;;;14.55;3.03;;;26.00;72.40;;;;;;5072276;28;20041;-67
2023/09/26 01:31:37;;;;;;;18.02;2.97;;;26.00;72.00;;;;;;5058335;28;20136;-67
2023/09/26 01:34:05;;;;;;;14.48;2.90;;;25.90;73.40;;;;;;5053400;28;20029;-67
2023/09/26 01:36:32;;;;;;;19.80;3.70;;;25.60;73.20;;;;;;5053335;28;20017;-67
2023/09/26 01:39:00;;;;;;;14.80;3.30;;;25.60;73.70;;;;;;5053681;28;20021;-68
2023/09/26 01:41:28;;;;;;;13.02;3.13;;;25.60;74.00;;;;;;5053653;28;20025;-68
2023/09/26 01:43:56;;;;;;;17.00;2.90;;;25.50;73.50;;;;;;5054175;28;20063;-67
2023/09/26 01:46:23;;;;;;;12.90;3.60;;;25.60;72.60;;;;;;5054840;28;20079;-67
2023/09/26 01:48:50;;;;;;;18.50;3.28;;;25.50;73.60;;;;;;5057273;28;20044;-70
2023/09/26 01:51:18;;;;;;;22.08;3.63;;;25.40;74.40;;;;;;5066704;28;20089;-70
2023/09/26 01:53:45;;;;;;;15.65;3.45;;;25.20;75.40;;;;;;5063898;28;20056;-68
2023/09/26 01:56:12;;;;;;;20.23;3.42;;;24.80;76.10;;;;;;5056859;28;20084;-69
2023/09/26 01:58:40;;;;;;;20.83;3.80;;;24.60;76.10;;;;;;5059545;28;20162;-67
2023/09/26 02:01:07;;;;;;;16.88;3.55;;;24.60;76.60;;;;;;5065280;28;20120;-69
2023/09/26 02:03:35;;;;;;;20.83;3.40;;;24.60;77.50;;;;;;5067443;28;20107;-68
2023/09/26 02:06:02;;;;;;;23.42;3.63;;;24.70;76.70;;;;;;5056750;28;20466;-67
2023/09/26 02:08:29;;;;;;;22.42;3.63;;;24.60;76.90;;;;;;5059306;28;20040;-67
2023/09/26 02:10:57;;;;;;;14.30;3.65;;;24.70;77.30;;;;;;5056750;28;20091;-67
2023/09/26 02:13:25;;;;;;;17.95;4.03;;;24.70;76.20;;;;;;5059179;28;20028;-67
2023/09/26 02:15:52;;;;;;;16.90;4.15;;;24.70;77.00;;;;;;5059066;28;20048;-67
2023/09/26 02:18:19;;;;;;;16.75;2.88;;;24.90;75.90;;;;;;5061743;28;20079;-68
2023/09/26 02:20:47;;;;;;;17.67;3.47;;;25.20;75.30;;;;;;5060397;28;20032;-67
2023/09/26 02:23:15;;;;;;;17.15;3.60;;;25.10;75.70;;;;;;5059507;28;20041;-67
2023/09/26 02:25:51;;;;;;;14.23;4.13;;;25.20;77.10;;;;;;5055557;28;20117;-67
2023/09/26 02:28:20;;;;;;;15.95;2.97;;;25.70;75.40;;;;;;5051221;28;20091;-66
2023/09/26 02:30:47;;;;;;;16.17;3.03;;;25.40;74.80;;;;;;5049501;28;20024;-67
2023/09/26 02:33:14;;;;;;;17.10;3.53;;;25.50;75.70;;;;;;5045549;28;20115;-65
2023/09/26 02:35:42;;;;;;;16.65;4.10;;;25.30;75.10;;;;;;5050253;28;20064;-65
2023/09/26 02:38:09;;;;;;;19.17;3.22;;;25.20;75.70;;;;;;5049295;28;20474;-66
2023/09/26 02:40:37;;;;;;;16.63;3.45;;;25.20;75.00;;;;;;5051800;28;20035;-66
2023/09/26 02:43:04;;;;;;;18.80;3.25;;;25.30;75.30;;;;;;5057777;28;20028;-66
2023/09/26 02:45:31;;;;;;;13.50;3.13;;;25.30;75.20;;;;;;5061036;28;20029;-66
2023/09/26 02:47:59;;;;;;;13.73;3.38;;;25.30;73.70;;;;;;5055720;28;20045;-66
2023/09/26 02:50:27;;;;;;;18.48;4.25;;;25.30;74.20;;;;;;5053178;28;20147;-66
2023/09/26 02:52:54;;;;;;;18.80;3.65;;;25.50;73.60;;;;;;5052889;28;20496;-66
2023/09/26 02:55:22;;;;;;;20.02;3.58;;;25.40;72.60;;;;;;5050173;28;20089;-66
2023/09/26 02:57:49;;;;;;;18.80;3.65;;;25.40;72.80;;;;;;5056491;28;20064;-67
2023/09/26 03:00:16;;;;;;;20.02;3.45;;;25.80;73.80;;;;;;5062567;28;20020;-66
2023/09/26 03:02:45;;;;;;;22.40;4.75;;;25.60;72.30;;;;;;5058038;28;20024;-66
2023/09/26 03:05:13;;;;;;;19.60;3.40;;;25.80;72.60;;;;;;5051516;28;20032;-67
2023/09/26 03:07:41;;;;;;;16.75;3.50;;;26.20;71.40;;;;;;5059008;28;20036;-67
2023/09/26 03:10:09;;;;;;;16.45;3.72;;;26.40;72.70;;;;;;5058192;28;20079;-67
2023/09/26 03:12:36;;;;;;;17.52;4.13;;;26.80;70.90;;;;;;5051500;28;20363;-66
2023/09/26 03:15:06;;;;;;;19.50;3.72;;;27.10;69.90;;;;;;5048727;28;20017;-65
2023/09/26 03:17:33;;;;;;;17.35;3.53;;;27.00;70.20;;;;;;5050512;28;20021;-66
2023/09/26 03:20:01;;;;;;;16.77;3.95;;;26.80;71.70;;;;;;5049155;28;20142;-66
2023/09/26 03:22:28;;;;;;;20.75;3.40;;;26.50;71.40;;;;;;5048186;28;20025;-67
2023/09/26 03:24:55;;;;;;;23.05;4.00;;;26.40;71.20;;;;;;5046424;28;20040;-66
2023/09/26 03:27:24;;;;;;;23.05;3.88;;;26.70;71.70;;;;;;5050893;28;20064;-67
2023/09/26 03:29:51;;;;;;;23.80;4.05;;;27.30;70.90;;;;;;5055901;28;20021;-68
2023/09/26 03:32:19;;;;;;;13.27;3.10;;;27.30;69.80;;;;;;5040262;28;20028;-66
2023/09/26 03:34:46;;;;;;;22.35;3.70;;;26.90;69.60;;;;;;5066731;28;20368;-67
2023/09/26 03:37:14;;;;;;;14.50;3.55;;;26.90;70.00;;;;;;5052825;28;20028;-67
2023/09/26 03:39:41;;;;;;;25.35;4.35;;;27.00;70.80;;;;;;5048627;28;20396;-66
2023/09/26 03:42:08;;;;;;;16.65;3.28;;;27.20;70.60;;;;;;5058017;28;20031;-67
2023/09/26 03:44:36;;;;;;;19.00;4.50;;;27.50;69.60;;;;;;5065850;28;20029;-66
2023/09/26 03:47:03;;;;;;;16.92;3.47;;;27.40;69.30;;;;;;5054066;28;20029;-67
2023/09/26 03:49:30;;;;;;;19.58;3.50;;;27.70;68.40;;;;;;5050592;28;20041;-67
2023/09/26 03:51:58;;;;;;;18.45;3.40;;;27.60;68.60;;;;;;5054706;28;20032;-68
2023/09/26 03:54:25;;;;;;;16.55;3.40;;;27.10;69.00;;;;;;5050191;28;20021;-68
2023/09/26 03:56:52;;;;;;;16.23;3.45;;;26.70;69.80;;;;;;5057365;28;20033;-66
2023/09/26 03:59:20;;;;;;;18.08;3.70;;;27.10;68.80;;;;;;5049745;28;20607;-66
2023/09/26 04:01:47;;;;;;;16.40;3.55;;;27.00;68.90;;;;;;5047046;28;20059;-66
2023/09/26 04:04:14;;;;;;;15.77;4.05;;;26.90;68.90;;;;;;5051552;28;20033;-66
2023/09/26 04:06:42;;;;;;;19.90;4.20;;;26.70;69.20;;;;;;5051120;28;20021;-67
2023/09/26 04:09:09;;;;;;;16.50;3.53;;;26.90;69.60;;;;;;5056686;28;20039;-66
2023/09/26 04:11:37;;;;;;;19.02;4.07;;;27.00;68.80;;;;;;5047297;28;20028;-67
2023/09/26 04:14:05;;;;;;;22.08;3.70;;;27.20;70.00;;;;;;5049957;28;20076;-68
2023/09/26 04:16:32;;;;;;;20.02;3.40;;;27.20;68.50;;;;;;5048288;28;20024;-68
2023/09/26 04:19:00;;;;;;;16.48;3.95;;;27.10;68.90;;;;;;5050612;28;20415;-68
2023/09/26 04:21:27;;;;;;;18.38;3.65;;;27.20;68.90;;;;;;5056826;28;20163;-68
2023/09/26 04:23:55;;;;;;;14.85;3.42;;;27.00;69.10;;;;;;5052615;28;20049;-68
2023/09/26 04:26:23;;;;;;;16.27;3.45;;;26.70;69.10;;;;;;5057734;28;20057;-68
2023/09/26 04:28:50;;;;;;;18.52;3.95;;;26.40;69.90;;;;;;5054476;28;20059;-67
2023/09/26 04:31:19;;;;;;;18.10;2.92;;;26.40;70.40;;;;;;5047909;28;20055;-67
2023/09/26 04:33:49;;;;;;;17.08;3.53;;;26.50;70.70;;;;;;5057517;28;20028;-66
2023/09/26 04:36:17;;;;;;;16.60;3.45;;;26.60;69.50;;;;;;5053418;28;20358;-67
2023/09/26 04:38:45;;;;;;;14.38;3.05;;;26.40;70.40;;;;;;5050333;28;20040;-67
2023/09/26 04:41:16;;;;;;;14.00;3.22;;;26.20;70.10;;;;;;5050003;28;20043;-66
2023/09/26 04:43:43;;;;;;;15.52;4.53;;;26.00;70.30;;;;;;5050668;28;20025;-66
2023/09/26 04:46:15;;;;;;;12.15;2.88;;;26.10;70.70;;;;;;5048991;28;20122;-67
2023/09/26 04:48:44;;;;;;;16.50;3.28;;;26.20;70.50;;;;;;5053373;28;20470;-67
2023/09/26 04:51:16;;;;;;;15.82;3.20;;;25.80;70.60;;;;;;5056216;28;20025;-67
2023/09/26 04:53:43;;;;;;;23.88;4.03;;;25.40;71.30;;;;;;5049928;28;20036;-68
2023/09/26 04:56:11;;;;;;;14.68;3.30;;;25.40;71.30;;;;;;5052166;28;20035;-67
2023/09/26 04:58:38;;;;;;;13.85;2.97;;;25.20;72.20;;;;;;5051769;28;20047;-67
2023/09/26 05:01:16;;;;;;;16.13;3.50;;;25.50;72.00;;;;;;5051200;28;20037;-67
2023/09/26 05:03:44;;;;;;;19.35;3.38;;;25.80;71.10;;;;;;5053152;28;20063;-68
2023/09/26 05:06:12;;;;;;;16.75;3.00;;;26.20;71.10;;;;;;5049164;28;20036;-67
2023/09/26 05:08:41;;;;;;;17.00;3.30;;;26.40;70.40;;;;;;5051470;28;20044;-67
2023/09/26 05:11:17;;;;;;;18.15;3.13;;;26.30;70.70;;;;;;5047748;28;20029;-68
2023/09/26 05:13:45;;;;;;;20.50;3.72;;;26.40;70.40;;;;;;5052265;28;20114;-67
2023/09/26 05:16:14;;;;;;;14.05;2.92;;;26.40;69.60;;;;;;5060337;28;20123;-67
2023/09/26 05:18:42;;;;;;;20.17;4.03;;;26.40;70.10;;;;;;5051604;28;20196;-67
2023/09/26 05:21:11;;;;;;;13.75;3.33;;;26.40;70.80;;;;;;5048362;28;20024;-67
2023/09/26 05:23:39;;;;;;;19.70;4.03;;;26.40;70.50;;;;;;5058566;28;20105;-67
2023/09/26 05:26:13;;;;;;;17.20;3.80;;;26.30;71.20;;;;;;5054424;28;20029;-67
2023/09/26 05:28:41;;;;;;;21.98;3.95;;;26.20;71.50;;;;;;5054708;28;20076;-67
2023/09/26 05:31:08;;;;;;;12.70;3.40;;;25.80;71.50;;;;;;5051088;28;20033;-67
2023/09/26 05:33:36;;;;;;;12.85;3.10;;;25.80;71.50;;;;;;5056043;28;20549;-67
2023/09/26 05:36:04;;;;;;;16.67;3.13;;;25.50;71.40;;;;;;5056426;28;20021;-67
2023/09/26 05:38:31;;;;;;;15.05;3.00;;;25.40;72.10;;;;;;5052746;28;20021;-67
2023/09/26 05:40:58;;;;;;;14.07;3.38;;;25.30;72.30;;;;;;5052389;28;20031;-66
2023/09/26 05:43:27;;;;;;;16.30;4.20;;;25.20;72.20;;;;;;5058597;28;20025;-66
2023/09/26 05:45:54;;;;;;;12.82;2.90;;;25.00;71.90;;;;;;5051305;28;20619;-67
2023/09/26 05:48:22;;;;;;;20.30;4.32;;;24.60;72.90;;;;;;5059759;28;20060;-66
2023/09/26 05:50:49;;;;;;;17.15;3.03;;;24.10;73.60;;;;;;5060501;28;20091;-66
2023/09/26 05:53:17;;;;;;;15.43;2.95;;;24.00;74.90;;;;;;5056998;28;20040;-66
2023/09/26 05:55:45;;;;;;;16.55;3.78;;;23.90;75.20;;;;;;5061331;28;20025;-67
2023/09/26 05:58:12;;;;;;;16.23;3.25;;;23.80;75.40;;;;;;5061399;28;20094;-67
2023/09/26 06:00:40;;;;;;;17.95;3.75;;;23.60;76.40;;;;;;5049880;28;20033;-67
2023/09/26 06:03:07;;;;;;;16.95;3.25;;;23.60;76.60;;;;;;5055220;28;20035;-67
2023/09/26 06:05:36;;;;;;;18.88;3.75;;;23.40;77.00;;;;;;5059775;28;20485;-67
2023/09/26 06:08:04;;;;;;;18.05;3.45;;;23.40;77.60;;;;;;5060367;28;20583;-67
2023/09/26 06:10:31;;;;;;;19.17;3.78;;;23.20;78.00;;;;;;5058627;28;20022;-67
2023/09/26 06:12:59;;;;;;;17.27;3.08;;;23.20;78.00;;;;;;5062050;28;20024;-65
2023/09/26 06:15:26;;;;;;;13.88;3.20;;;23.10;77.70;;;;;;5057819;28;20036;-66
2023/09/26 06:17:59;;;;;;;13.68;2.80;;;22.90;77.70;;;;;;5054264;28;20056;-66
2023/09/26 06:20:29;;;;;;;13.35;2.60;;;22.80;78.00;;;;;;5058102;28;20121;-67
2023/09/26 06:22:58;;;;;;;19.67;3.55;;;22.70;78.50;;;;;;5060876;28;20127;-67
2023/09/26 06:25:25;;;;;;;16.02;3.30;;;22.70;77.70;;;;;;5059943;28;20056;-67
2023/09/26 06:27:53;;;;;;;14.18;3.40;;;22.60;78.00;;;;;;5050122;28;20453;-67
2023/09/26 06:30:20;;;;;;;20.05;3.20;;;22.50;78.90;;;;;;5058292;28;20041;-68
2023/09/26 06:32:47;;;;;;;16.08;3.92;;;22.60;78.20;;;;;;5054964;28;20029;-67
2023/09/26 06:35:15;;;;;;;13.88;3.28;;;22.60;79.30;;;;;;5052254;28;20101;-66
2023/09/26 06:37:42;;;;;;;24.77;4.82;;;22.60;78.20;;;;;;5050786;28;20025;-67
2023/09/26 06:40:10;;;;;;;18.20;3.55;;;22.60;78.70;;;;;;5052835;28;20046;-67
2023/09/26 06:42:37;;;;;;;18.40;4.05;;;22.60;79.10;;;;;;5049154;28;20033;-67
2023/09/26 06:45:06;;;;;;;20.30;3.58;;;22.60;79.20;;;;;;5045627;28;20021;-67
2023/09/26 06:47:34;;;;;;;14.10;3.05;;;22.80;79.30;;;;;;5048016;28;20056;-67
2023/09/26 06:50:02;;;;;;;18.58;4.25;;;22.80;79.30;;;;;;5045920;28;20446;-67
2023/09/26 06:52:31;;;;;;;19.80;3.22;;;23.00;79.30;;;;;;5048537;28;20147;-67
2023/09/26 06:54:58;;;;;;;20.10;2.88;;;23.10;78.00;;;;;;5047637;28;20060;-67
2023/09/26 06:57:26;;;;;;;16.95;3.47;;;23.10;78.20;;;;;;5052947;28;20474;-67
2023/09/26 06:59:55;;;;;;;20.02;3.58;;;23.20;77.70;;;;;;5046479;28;20058;-67
2023/09/26 07:02:24;;;;;;;19.55;3.63;;;23.20;78.10;;;;;;5053562;28;20060;-67
2023/09/26 07:04:54;;;;;;;22.30;4.00;;;23.10;77.70;;;;;;5052106;28;20123;-66
2023/09/26 07:07:23;;;;;;;14.90;3.45;;;22.90;79.20;;;;;;5057117;28;20036;-67
2023/09/26 07:09:50;;;;;;;16.20;3.88;;;22.60;79.90;;;;;;5063929;28;20131;-67
2023/09/26 07:12:18;;;;;;;16.45;2.75;;;22.60;80.40;;;;;;5046716;28;20025;-66
2023/09/26 07:14:45;;;;;;;12.05;3.00;;;22.50;81.20;;;;;;5050624;28;20485;-67
2023/09/26 07:17:12;;;;;;;16.98;3.03;;;22.30;81.50;;;;;;5056081;28;20033;-67
2023/09/26 07:19:40;;;;;;;22.60;3.50;;;22.10;82.20;;;;;;5055950;28;20132;-67
2023/09/26 07:22:07;;;;;;;19.35;3.65;;;22.00;83.00;;;;;;5054621;28;20025;-67
2023/09/26 07:24:36;;;;;;;16.42;3.50;;;21.90;82.80;;;;;;5057736;28;20454;-67
2023/09/26 07:27:05;;;;;;;13.25;3.42;;;21.80;82.90;;;;;;5054941;28;20082;-67
2023/09/26 07:29:32;;;;;;;16.38;3.10;;;21.80;83.30;;;;;;5058591;28;20053;-67
2023/09/26 07:31:59;;;;;;;16.60;3.28;;;21.70;83.60;;;;;;5056174;28;20028;-67
2023/09/26 07:34:27;;;;;;;14.77;3.25;;;21.60;83.70;;;;;;5049015;28;20021;-67
2023/09/26 07:36:55;;;;;;;17.15;3.53;;;21.50;84.70;;;;;;5056115;28;20107;-67
2023/09/26 07:39:22;;;;;;;15.93;3.53;;;21.40;85.10;;;;;;5054027;28;20021;-67
2023/09/26 07:41:50;;;;;;;14.75;3.40;;;21.30;85.20;;;;;;5053271;28;20369;-67
2023/09/26 07:44:17;;;;;;;16.67;3.30;;;21.30;85.50;;;;;;5052530;28;20642;-67
2023/09/26 07:46:44;;;;;;;19.25;3.70;;;21.30;84.50;;;;;;5055341;28;20082;-66
2023/09/26 07:49:13;;;;;;;16.35;4.07;;;21.10;86.40;;;;;;5059923;28;20032;-67
2023/09/26 07:51:41;;;;;;;13.25;3.28;;;21.00;87.20;;;;;;5057632;28;20036;-67
2023/09/26 07:54:08;;;;;;;17.42;3.72;;;20.90;87.50;;;;;;5055694;28;20036;-68
2023/09/26 07:56:35;;;;;;;15.73;3.42;;;20.80;88.70;;;;;;5056070;28;20027;-67
2023/09/26 07:59:03;;;;;;;17.10;3.35;;;20.70;88.30;;;;;;5055385;28;20048;-67
2023/09/26 08:01:31;;;;;;;11.52;3.35;;;20.60;88.90;;;;;;5056371;28;20065;-67
2023/09/26 08:03:58;;;;;;;15.23;3.53;;;20.70;89.30;;;;;;5049884;28;20025;-67
2023/09/26 08:06:26;;;;;;;17.52;3.38;;;20.70;89.70;;;;;;5061954;28;20081;-67
2023/09/26 08:08:53;;;;;;;15.00;2.33;;;20.70;90.00;;;;;;5055729;28;20048;-68
2023/09/26 08:11:21;;;;;;;13.43;3.35;;;20.50;90.20;;;;;;5046051;28;20022;-67
2023/09/26 08:13:48;;;;;;;12.50;2.85;;;20.50;90.00;;;;;;5044203;28;20411;-67
2023/09/26 08:16:15;;;;;;;15.85;2.95;;;20.60;90.10;;;;;;5053552;28;20028;-66
2023/09/26 08:18:43;;;;;;;11.10;2.90;;;20.60;90.20;;;;;;5050738;28;20029;-66
2023/09/26 08:21:10;;;;;;;15.32;3.47;;;20.40;90.60;;;;;;5052186;28;20032;-66
2023/09/26 08:23:37;;;;;;;19.80;2.92;;;20.40;90.80;;;;;;5054352;28;20045;-67
2023/09/26 08:26:06;;;;;;;14.68;3.47;;;20.30;91.00;;;;;;5059050;28;20021;-68
2023/09/26 08:28:34;;;;;;;14.60;2.95;;;20.20;91.40;;;;;;5054111;28;20478;-68
2023/09/26 08:31:15;;;;;;;12.50;3.20;;;20.20;91.40;;;;;;5055199;28;20112;-67
2023/09/26 08:33:46;;;;;;;21.92;3.75;;;20.20;91.50;;;;;;5053806;28;20033;-67
2023/09/26 08:36:17;;;;;;;20.88;3.42;;;20.30;91.40;;;;;;5053973;28;20029;-68
2023/09/26 08:38:45;;;;;;;19.85;4.03;;;20.10;91.60;;;;;;5066945;28;20027;-67
2023/09/26 08:41:13;;;;;;;18.60;3.10;;;20.10;91.60;;;;;;5071145;28;20024;-68
2023/09/26 08:43:41;;;;;;;19.50;3.58;;;20.00;91.60;;;;;;5051586;28;20037;-68
2023/09/26 08:46:09;;;;;;;22.50;3.67;;;20.00;91.70;;;;;;5053876;28;20025;-67
2023/09/26 08:48:38;;;;;;;15.07;3.42;;;20.10;91.70;;;;;;5057298;28;20051;-67
2023/09/26 08:51:06;;;;;;;18.20;3.67;;;20.00;91.70;;;;;;5056760;28;20025;-67
2023/09/26 08:53:33;;;;;;;21.60;4.90;;;20.00;91.90;;;;;;5056908;28;20174;-67
2023/09/26 08:56:01;;;;;;;21.63;4.75;;;20.00;91.90;;;;;;5054434;28;20032;-67
2023/09/26 08:58:30;;;;;;;17.73;3.67;;;19.80;92.30;;;;;;5052634;28;20032;-67
2023/09/26 09:00:58;;;;;;;13.55;3.20;;;19.80;92.40;;;;;;5058998;28;20040;-68
2023/09/26 09:03:26;;;;;;;14.95;3.00;;;19.90;92.20;;;;;;5060777;28;20060;-67
2023/09/26 09:05:53;;;;;;;17.60;3.55;;;20.00;92.20;;;;;;5061207;28;20173;-67
2023/09/26 09:08:22;;;;;;;17.77;3.25;;;20.00;92.10;;;;;;5061577;28;20036;-68
2023/09/26 09:10:53;;;;;;;15.65;3.78;;;20.00;92.20;;;;;;5066174;28;20021;-68
2023/09/26 09:13:40;;;;;;;17.73;3.72;;;20.00;92.30;;;;;;5059782;28;20056;-68
2023/09/26 09:16:20;;;;;;;14.88;3.45;;;19.90;92.70;;;;;;5057276;28;20033;-68
2023/09/26 09:18:57;;;;;;;17.48;3.10;;;19.80;92.50;;;;;;5062727;28;20117;-68
2023/09/26 09:21:34;;;;;;;18.05;3.17;;;19.80;93.60;;;;;;5062206;28;20036;-68
2023/09/26 09:24:06;;;;;;;13.43;2.92;;;19.70;94.30;;;;;;5064563;28;20485;-68
2023/09/26 09:26:35;;;;;;;21.33;4.43;;;19.60;94.50;;;;;;5060410;28;20024;-68
2023/09/26 09:29:23;;;;;;;27.77;3.85;;;19.70;94.60;;;;;;5055438;28;20166;-67
2023/09/26 09:31:52;;;;;;;18.70;3.47;;;19.70;95.30;;;;;;5062038;28;20037;-67
2023/09/26 09:34:23;;;;;;;19.60;3.08;;;19.60;96.30;;;;;;5057931;28;20120;-67
2023/09/26 09:36:51;;;;;;;19.13;3.20;;;19.40;97.00;;;;;;5062553;28;20020;-67
2023/09/26 09:39:22;;;;;;;24.40;4.40;;;19.40;97.10;;;;;;5062905;28;20040;-67
2023/09/26 09:41:50;;;;;;;18.90;3.22;;;19.50;97.20;;;;;;5058165;28;20070;-67
2023/09/26 09:44:17;;;;;;;19.50;3.72;;;19.30;98.10;;;;;;5052984;28;20039;-67
2023/09/26 09:46:46;;;;;;;16.58;3.95;;;19.10;98.50;;;;;;5048898;28;20064;-68
2023/09/26 09:49:14;;;;;;;22.05;4.05;;;19.00;99.40;;;;;;5058086;28;20370;-68
2023/09/26 09:51:45;;;;;;;18.95;3.63;;;18.90;99.90;;;;;;5058237;28;20021;-68
2023/09/26 09:54:17;;;;;;;18.45;4.05;;;19.20;99.90;;;;;;5068976;28;20028;-68
2023/09/26 09:56:47;;;;;;;19.30;4.20;;;19.40;99.80;;;;;;5057217;28;20017;-69
2023/09/26 09:59:16;;;;;;;16.67;3.55;;;19.40;99.80;;;;;;5064908;28;20025;-68
2023/09/26 10:01:50;;;;;;;13.50;3.63;;;19.30;99.70;;;;;;5057308;28;20028;-68
2023/09/26 10:04:19;;;;;;;19.35;3.90;;;19.20;99.80;;;;;;5060060;28;20054;-67
2023/09/26 10:06:46;;;;;;;21.10;4.05;;;19.00;99.90;;;;;;5064830;28;20033;-68
2023/09/26 10:09:16;;;;;;;15.07;4.05;;;18.90;99.70;;;;;;5048461;28;20055;-67
2023/09/26 10:11:44;;;;;;;26.70;4.43;;;18.80;99.90;;;;;;5052361;28;20351;-69
2023/09/26 10:14:20;;;;;;;26.65;4.70;;;18.90;99.90;;;;;;5051039;28;20136;-68
2023/09/26 10:16:47;;;;;;;25.05;5.38;;;18.80;99.90;;;;;;5050780;28;20048;-68
2023/09/26 10:19:19;;;;;;;16.48;4.60;;;18.50;99.90;;;;;;5048388;28;20021;-68
2023/09/26 10:21:46;;;;;;;16.75;4.65;;;18.30;99.90;;;;;;5049436;28;20029;-69
2023/09/26 10:24:17;;;;;;;18.40;4.05;;;18.40;99.90;;;;;;5055014;28;20041;-68
2023/09/26 10:26:47;;;;;;;15.05;4.57;;;18.50;99.90;;;;;;5053284;28;20487;-69
2023/09/26 10:29:26;;;;;;;17.85;3.30;;;18.60;99.90;;;;;;5050799;28;20048;-68
2023/09/26 10:31:59;;;;;;;16.52;3.83;;;18.70;99.90;;;;;;5056754;28;20028;-68
2023/09/26 10:34:32;;;;;;;21.83;4.72;;;18.60;99.90;;;;;;5060576;28;20036;-68
2023/09/26 10:37:00;;;;;;;24.52;4.15;;;18.60;99.90;;;;;;5054450;28;20033;-69
2023/09/26 10:39:45;;;;;;;17.63;4.18;;;18.70;99.90;;;;;;5051102;28;20112;-68
2023/09/26 10:42:21;;;;;;;23.33;4.03;;;18.70;99.90;;;;;;5050698;28;20028;-67
2023/09/26 10:44:50;;;;;;;21.85;4.00;;;18.70;99.90;;;;;;5063842;28;20029;-69
2023/09/26 10:47:24;;;;;;;17.08;3.72;;;18.70;99.90;;;;;;5058213;28;20055;-68
2023/09/26 10:49:52;;;;;;;17.75;4.07;;;18.60;99.90;;;;;;5064753;28;20063;-68
2023/09/26 10:52:23;;;;;;;20.98;3.92;;;18.30;99.90;;;;;;5053601;28;20127;-68
2023/09/26 10:54:51;;;;;;;17.60;4.30;;;18.10;99.90;;;;;;5059176;28;20024;-68
2023/09/26 10:57:20;;;;;;;12.23;3.60;;;18.00;99.90;;;;;;5059797;28;20028;-67
2023/09/26 10:59:49;;;;;;;16.38;4.38;;;17.90;99.90;;;;;;5059760;28;20036;-68
2023/09/26 11:02:16;;;;;;;19.27;5.25;;;17.90;99.90;;;;;;5057311;28;20029;-68
2023/09/26 11:04:44;;;;;;;20.50;4.43;;;17.90;99.90;;;;;;5061036;28;20052;-70
2023/09/26 11:07:11;;;;;;;17.73;3.55;;;18.20;99.90;;;;;;5058351;28;20021;-68
2023/09/26 11:09:44;;;;;;;17.75;3.60;;;18.10;99.90;;;;;;5060439;28;20040;-68
2023/09/26 11:12:15;;;;;;;25.70;4.10;;;18.20;99.90;;;;;;5056459;28;20028;-68
2023/09/26 11:14:42;;;;;;;25.55;4.60;;;18.20;99.90;;;;;;5060534;28;20451;-68
2023/09/26 11:17:12;;;;;;;35.30;5.40;;;18.30;99.90;;;;;;5056959;28;20032;-68
2023/09/26 11:19:40;;;;;;;23.27;4.57;;;18.40;99.90;;;;;;5054875;28;20024;-68
2023/09/26 11:22:07;;;;;;;23.38;4.80;;;18.20;99.90;;;;;;5060639;28;20039;-68
2023/09/26 11:24:35;;;;;;;26.17;5.07;;;18.00;99.90;;;;;;5060148;28;20048;-68
2023/09/26 11:27:05;;;;;;;22.52;4.50;;;17.90;99.90;;;;;;5060550;28;20103;-68
2023/09/26 11:29:34;;;;;;;20.95;4.40;;;17.90;99.90;;;;;;5064099;28;20067;-68
2023/09/26 11:32:03;;;;;;;18.70;4.20;;;18.00;99.90;;;;;;5062385;28;20024;-68
2023/09/26 11:34:31;;;;;;;24.52;4.18;;;18.20;99.90;;;;;;5057022;28;20025;-68
2023/09/26 11:36:58;;;;;;;21.77;5.05;;;18.20;99.90;;;;;;5051277;28;20036;-68
2023/09/26 11:39:26;;;;;;;16.00;3.92;;;18.20;99.90;;;;;;5056810;28;20060;-68
2023/09/26 11:42:03;;;;;;;19.25;4.43;;;18.10;99.90;;;;;;5049235;28;20024;-68
2023/09/26 11:44:31;;;;;;;12.98;4.25;;;18.10;99.90;;;;;;5054019;28;20029;-68
2023/09/26 11:46:58;;;;;;;18.40;4.50;;;18.00;99.90;;;;;;5052221;28;20414;-68
2023/09/26 11:49:26;;;;;;;21.15;4.85;;;18.00;99.90;;;;;;5055103;28;20044;-68
2023/09/26 11:51:54;;;;;;;14.63;4.30;;;17.90;99.90;;;;;;5043647;28;20474;-68
2023/09/26 11:54:22;;;;;;;16.90;4.38;;;17.90;99.90;;;;;;5053109;28;20099;-68
2023/09/26 11:56:49;;;;;;;18.65;5.25;;;17.90;99.90;;;;;;5046619;28;20025;-69
2023/09/26 11:59:17;;;;;;;16.38;4.97;;;17.90;99.90;;;;;;5048098;28;20067;-68
2023/09/26 12:01:44;;;;;;;17.70;4.70;;;17.90;99.90;;;;;;5053553;28;20021;-69
2023/09/26 12:04:13;;;;;;;15.13;4.28;;;17.80;99.90;;;;;;5050813;28;20029;-68
2023/09/26 12:06:41;;;;;;;18.48;5.05;;;17.80;99.90;;;;;;5048068;28;20028;-69
2023/09/26 12:09:18;;;;;;;17.95;4.68;;;17.80;99.90;;;;;;5048897;28;20037;-70
2023/09/26 12:11:49;;;;;;;23.63;4.43;;;17.80;99.90;;;;;;5045811;28;20029;-68
2023/09/26 12:14:17;;;;;;;22.25;4.90;;;17.90;99.90;;;;;;5052356;28;20033;-67
2023/09/26 12:16:50;;;;;;;22.23;5.40;;;17.80;99.00;;;;;;5053448;28;20029;-68
2023/09/26 12:19:19;;;;;;;12.85;3.60;;;17.80;99.10;;;;;;5060581;28;20060;-69
2023/09/26 12:21:47;;;;;;;15.45;5.13;;;17.80;98.70;;;;;;5050770;28;20078;-68
2023/09/26 12:24:18;;;;;;;16.27;3.90;;;17.70;98.70;;;;;;5052742;28;20053;-69
2023/09/26 12:26:48;;;;;;;14.00;4.20;;;17.80;98.90;;;;;;5063111;28;20033;-68
2023/09/26 12:29:16;;;;;;;13.10;4.18;;;17.80;98.80;;;;;;5056053;28;20044;-69
2023/09/26 12:31:44;;;;;;;16.02;4.53;;;17.80;98.80;;;;;;5049951;28;20490;-69
2023/09/26 12:34:14;;;;;;;19.27;4.57;;;17.90;98.60;;;;;;5044948;28;20030;-68
2023/09/26 12:36:42;;;;;;;17.85;4.63;;;17.90;98.10;;;;;;5053897;28;20470;-69
2023/09/26 12:39:09;;;;;;;18.10;4.22;;;18.00;97.70;;;;;;5056992;28;20025;-69
2023/09/26 12:41:37;;;;;;;19.52;4.03;;;18.10;97.40;;;;;;5052344;28;20025;-68
2023/09/26 12:44:04;;;;;;;18.23;4.47;;;18.00;97.70;;;;;;5054672;28;20032;-67